This is the latest recevied weather packets stored in our database for station/object JE3XST-13. If no packets are shown the sender has not sent any weather packets the latest 10 day(s).
| Time | Temp. | Humidity | Pressure | Rain* | Wind** | Luminosity | Snow |
|---|---|---|---|---|---|---|---|
| 1787540647 | 35.56° C | 57% | 1012.4 hPa | 0 mm | - | - | - |
| 1787538846 | 35° C | 58% | 1012.8 hPa | 0 mm | - | - | - |
| 1787537047 | 34.44° C | 60% | 1013 hPa | 0 mm | - | - | - |
| 1787535246 | 33.33° C | 62% | 1013.4 hPa | 0 mm | - | - | - |
| 1787533445 | 32.78° C | 65% | 1013.7 hPa | 0 mm | - | - | - |
| 1787531645 | 31.67° C | 69% | 1014 hPa | 0 mm | - | - | - |
| 1787529842 | 31.11° C | 73% | 1014 hPa | 0 mm | - | - | - |
| 1787528041 | 30° C | 76% | 1013.9 hPa | 0 mm | - | - | - |
| 1787526242 | 29.44° C | 78% | 1014 hPa | 0 mm | - | - | - |
| 1787524440 | 28.33° C | 81% | 1014.2 hPa | 0 mm | - | - | - |
| 1787522641 | 27.78° C | 85% | 1014.3 hPa | 0 mm | - | - | - |
| 1787520840 | 26.67° C | 88% | 1014.3 hPa | 0 mm | - | - | - |
| 1787519039 | 26.11° C | 90% | 1014.2 hPa | 0 mm | - | - | - |
| 1787517240 | 25.56° C | 91% | 1014.2 hPa | 0 mm | - | - | - |
| 1787515439 | 25.56° C | 91% | 1013.9 hPa | 0 mm | - | - | - |
| 1787513638 | 25.56° C | 91% | 1014 hPa | 0 mm | - | - | - |
| 1787511836 | 25.56° C | 91% | 1014 hPa | 0 mm | - | - | - |
| 1787510036 | 25.56° C | 91% | 1014 hPa | 0 mm | - | - | - |
| 1787508234 | 25.56° C | 91% | 1014.1 hPa | 0 mm | - | - | - |
| 1787506435 | 25.56° C | 91% | 1014 hPa | 0 mm | - | - | - |
| 1787504633 | 25.56° C | 90% | 1014.3 hPa | 0 mm | - | - | - |
| 1787502835 | 25.56° C | 90% | 1014.3 hPa | 0 mm | - | - | - |
| 1787501033 | 25.56° C | 89% | 1014.2 hPa | 0 mm | - | - | - |
| 1787499265 | 26.11° C | 89% | 1014.3 hPa | 0 mm | - | - | - |
| 1787497465 | 26.11° C | 89% | 1014.5 hPa | 0 mm | - | - | - |
* Rain latest hour (hover to see other rain measurements)
** Current wind speed in m/s (hover to see current wind gust speed)